sensor_id;sensor_type;location;lat;lon;timestamp;pressure;altitude;pressure_sealevel;temperature;humidity
35489;BME280;21602;55.670;37.578;2023-03-26T00:02:18;97813.72;;;9.11;97.91
35489;BME280;21602;55.670;37.578;2023-03-26T00:04:44;97808.94;;;9.08;97.97
35489;BME280;21602;55.670;37.578;2023-03-26T00:07:10;97800.16;;;9.12;98.00
35489;BME280;21602;55.670;37.578;2023-03-26T00:09:37;97799.13;;;9.18;97.92
35489;BME280;21602;55.670;37.578;2023-03-26T00:12:03;97796.75;;;9.22;97.63
35489;BME280;21602;55.670;37.578;2023-03-26T00:14:29;97792.22;;;9.22;97.38
35489;BME280;21602;55.670;37.578;2023-03-26T00:19:39;97794.31;;;9.20;96.98
35489;BME280;21602;55.670;37.578;2023-03-26T00:22:05;97790.59;;;9.16;96.96
35489;BME280;21602;55.670;37.578;2023-03-26T00:24:30;97791.13;;;9.13;96.87
35489;BME280;21602;55.670;37.578;2023-03-26T00:29:42;97806.53;;;9.06;97.17
35489;BME280;21602;55.670;37.578;2023-03-26T00:32:08;97803.34;;;9.04;97.11
35489;BME280;21602;55.670;37.578;2023-03-26T00:34:33;97808.63;;;8.99;96.99
35489;BME280;21602;55.670;37.578;2023-03-26T00:36:59;97808.34;;;8.95;97.34
35489;BME280;21602;55.670;37.578;2023-03-26T00:39:28;97807.28;;;8.96;97.36
35489;BME280;21602;55.670;37.578;2023-03-26T00:41:54;97803.81;;;8.96;97.37
35489;BME280;21602;55.670;37.578;2023-03-26T00:44:20;97790.53;;;8.96;97.41
35489;BME280;21602;55.670;37.578;2023-03-26T00:47:06;97785.47;;;9.00;97.57
35489;BME280;21602;55.670;37.578;2023-03-26T00:49:50;97783.34;;;8.96;97.46
35489;BME280;21602;55.670;37.578;2023-03-26T00:52:17;97779.34;;;8.94;97.02
35489;BME280;21602;55.670;37.578;2023-03-26T00:54:47;97784.91;;;8.92;97.07
35489;BME280;21602;55.670;37.578;2023-03-26T00:57:33;97778.78;;;8.92;97.08
35489;BME280;21602;55.670;37.578;2023-03-26T01:00:28;97767.88;;;8.88;97.14
35489;BME280;21602;55.670;37.578;2023-03-26T01:02:57;97766.81;;;8.84;97.08
35489;BME280;21602;55.670;37.578;2023-03-26T01:08:42;97760.94;;;8.87;96.89
35489;BME280;21602;55.670;37.578;2023-03-26T01:10:51;97760.13;;;8.82;97.33
35489;BME280;21602;55.670;37.578;2023-03-26T01:13:22;97765.72;;;8.80;97.26
35489;BME280;21602;55.670;37.578;2023-03-26T01:15:49;97773.44;;;8.82;97.40
35489;BME280;21602;55.670;37.578;2023-03-26T01:24:12;97774.47;;;8.70;97.64
35489;BME280;21602;55.670;37.578;2023-03-26T01:27:10;97773.09;;;8.63;97.70
35489;BME280;21602;55.670;37.578;2023-03-26T01:41:29;97759.78;;;8.63;98.09
35489;BME280;21602;55.670;37.578;2023-03-26T01:46:46;97753.69;;;8.67;98.14
35489;BME280;21602;55.670;37.578;2023-03-26T01:49:13;97753.44;;;8.69;97.89
35489;BME280;21602;55.670;37.578;2023-03-26T01:51:40;97755.03;;;8.70;97.77
35489;BME280;21602;55.670;37.578;2023-03-26T01:54:12;97755.84;;;8.70;97.60
35489;BME280;21602;55.670;37.578;2023-03-26T01:57:28;97744.94;;;8.72;97.87
35489;BME280;21602;55.670;37.578;2023-03-26T02:00:35;97747.34;;;8.74;97.86
35489;BME280;21602;55.670;37.578;2023-03-26T02:11:05;97731.88;;;8.65;97.83
35489;BME280;21602;55.670;37.578;2023-03-26T02:13:36;97728.94;;;8.67;97.85
35489;BME280;21602;55.670;37.578;2023-03-26T02:16:05;97733.75;;;8.70;97.75
35489;BME280;21602;55.670;37.578;2023-03-26T02:21:38;97727.59;;;8.59;97.71
35489;BME280;21602;55.670;37.578;2023-03-26T02:24:04;97723.88;;;8.55;97.97
35489;BME280;21602;55.670;37.578;2023-03-26T02:26:53;97727.03;;;8.52;98.23
35489;BME280;21602;55.670;37.578;2023-03-26T02:29:19;97732.63;;;8.51;98.52
35489;BME280;21602;55.670;37.578;2023-03-26T02:31:47;97729.16;;;8.50;98.54
35489;BME280;21602;55.670;37.578;2023-03-26T02:34:14;97730.19;;;8.49;98.84
35489;BME280;21602;55.670;37.578;2023-03-26T02:36:49;97726.22;;;8.46;98.84
35489;BME280;21602;55.670;37.578;2023-03-26T02:39:15;97728.56;;;8.38;99.10
35489;BME280;21602;55.670;37.578;2023-03-26T02:41:48;97723.97;;;8.33;99.37
35489;BME280;21602;55.670;37.578;2023-03-26T02:44:14;97728.81;;;8.36;99.95
35489;BME280;21602;55.670;37.578;2023-03-26T02:46:58;97727.50;;;8.39;99.96
35489;BME280;21602;55.670;37.578;2023-03-26T02:49:47;97723.25;;;8.43;100.00
35489;BME280;21602;55.670;37.578;2023-03-26T02:52:33;97719.03;;;8.47;99.86
35489;BME280;21602;55.670;37.578;2023-03-26T02:55:00;97713.72;;;8.52;99.65
35489;BME280;21602;55.670;37.578;2023-03-26T02:57:28;97717.69;;;8.50;99.57
35489;BME280;21602;55.670;37.578;2023-03-26T03:00:13;97717.16;;;8.42;99.38
35489;BME280;21602;55.670;37.578;2023-03-26T03:02:49;97718.22;;;8.41;99.60
35489;BME280;21602;55.670;37.578;2023-03-26T03:05:44;97713.13;;;8.40;99.89
35489;BME280;21602;55.670;37.578;2023-03-26T03:08:25;97704.13;;;8.46;100.00
35489;BME280;21602;55.670;37.578;2023-03-26T03:11:12;97709.47;;;8.51;99.89
35489;BME280;21602;55.670;37.578;2023-03-26T03:13:42;97701.25;;;8.58;99.66
35489;BME280;21602;55.670;37.578;2023-03-26T03:16:09;97701.00;;;8.59;99.39
35489;BME280;21602;55.670;37.578;2023-03-26T03:18:35;97704.47;;;8.60;99.03
35489;BME280;21602;55.670;37.578;2023-03-26T03:21:03;97700.19;;;8.59;99.06
35489;BME280;21602;55.670;37.578;2023-03-26T03:23:30;97698.06;;;8.56;98.88
35489;BME280;21602;55.670;37.578;2023-03-26T03:29:14;97702.03;;;8.53;99.40
35489;BME280;21602;55.670;37.578;2023-03-26T03:32:19;97690.84;;;8.46;99.50
35489;BME280;21602;55.670;37.578;2023-03-26T03:34:48;97684.44;;;8.42;99.47
35489;BME280;21602;55.670;37.578;2023-03-26T03:37:17;97676.97;;;8.39;99.85
35489;BME280;21602;55.670;37.578;2023-03-26T03:39:49;97675.91;;;8.40;100.00
35489;BME280;21602;55.670;37.578;2023-03-26T03:42:18;97676.47;;;8.47;100.00
35489;BME280;21602;55.670;37.578;2023-03-26T03:44:44;97671.72;;;8.54;100.00
35489;BME280;21602;55.670;37.578;2023-03-26T03:47:33;97671.19;;;8.57;100.00
35489;BME280;21602;55.670;37.578;2023-03-26T03:49:59;97672.78;;;8.58;99.59
35489;BME280;21602;55.670;37.578;2023-03-26T03:53:02;97666.16;;;8.61;99.78
35489;BME280;21602;55.670;37.578;2023-03-26T03:55:30;97660.03;;;8.60;99.72
35489;BME280;21602;55.670;37.578;2023-03-26T03:58:15;97663.22;;;8.62;99.85
35489;BME280;21602;55.670;37.578;2023-03-26T04:00:51;97668.53;;;8.62;99.73
35489;BME280;21602;55.670;37.578;2023-03-26T04:03:35;97667.47;;;8.63;99.53
35489;BME280;21602;55.670;37.578;2023-03-26T04:06:08;97663.22;;;8.62;99.36
35489;BME280;21602;55.670;37.578;2023-03-26T04:08:37;97660.56;;;8.57;99.68
35489;BME280;21602;55.670;37.578;2023-03-26T04:11:06;97658.97;;;8.56;99.73
35489;BME280;21602;55.670;37.578;2023-03-26T04:13:50;97657.09;;;8.57;100.00
35489;BME280;21602;55.670;37.578;2023-03-26T04:16:24;97651.50;;;8.58;100.00
35489;BME280;21602;55.670;37.578;2023-03-26T04:18:50;97654.19;;;8.63;100.00
35489;BME280;21602;55.670;37.578;2023-03-26T04:21:16;97648.34;;;8.66;100.00
35489;BME280;21602;55.670;37.578;2023-03-26T04:23:44;97652.59;;;8.72;99.98
35489;BME280;21602;55.670;37.578;2023-03-26T04:26:21;97640.38;;;8.77;99.77
35489;BME280;21602;55.670;37.578;2023-03-26T04:29:09;97642.53;;;8.80;99.50
35489;BME280;21602;55.670;37.578;2023-03-26T04:31:39;97627.63;;;8.84;99.34
35489;BME280;21602;55.670;37.578;2023-03-26T04:34:17;97635.63;;;8.89;99.21
35489;BME280;21602;55.670;37.578;2023-03-26T04:36:54;97627.66;;;8.89;99.15
35489;BME280;21602;55.670;37.578;2023-03-26T04:39:23;97628.72;;;8.88;99.18
35489;BME280;21602;55.670;37.578;2023-03-26T04:42:16;97631.91;;;8.90;99.45
35489;BME280;21602;55.670;37.578;2023-03-26T04:44:59;97627.91;;;8.92;99.38
35489;BME280;21602;55.670;37.578;2023-03-26T04:47:28;97619.13;;;8.92;99.28
35489;BME280;21602;55.670;37.578;2023-03-26T04:49:55;97619.13;;;8.92;99.14
35489;BME280;21602;55.670;37.578;2023-03-26T04:52:22;97618.59;;;8.95;99.13
35489;BME280;21602;55.670;37.578;2023-03-26T04:55:18;97604.22;;;8.96;99.11
35489;BME280;21602;55.670;37.578;2023-03-26T04:58:04;97613.56;;;8.98;99.03
35489;BME280;21602;55.670;37.578;2023-03-26T05:00:53;97606.34;;;8.94;99.21
35489;BME280;21602;55.670;37.578;2023-03-26T05:03:19;97605.28;;;8.95;99.19
35489;BME280;21602;55.670;37.578;2023-03-26T05:05:47;97607.16;;;8.94;99.56
35489;BME280;21602;55.670;37.578;2023-03-26T05:08:15;97608.22;;;8.98;99.47
35489;BME280;21602;55.670;37.578;2023-03-26T05:10:41;97610.63;;;9.00;99.66
35489;BME280;21602;55.670;37.578;2023-03-26T05:13:17;97601.56;;;9.06;99.48
35489;BME280;21602;55.670;37.578;2023-03-26T05:15:48;97591.97;;;9.00;98.45
35489;BME280;21602;55.670;37.578;2023-03-26T05:18:24;97603.16;;;8.97;98.79
35489;BME280;21602;55.670;37.578;2023-03-26T05:23:56;97602.34;;;9.02;99.68
35489;BME280;21602;55.670;37.578;2023-03-26T05:26:22;97598.09;;;9.06;99.40
35489;BME280;21602;55.670;37.578;2023-03-26T05:29:07;97598.66;;;9.13;98.95
35489;BME280;21602;55.670;37.578;2023-03-26T05:31:53;97598.09;;;9.16;98.82
35489;BME280;21602;55.670;37.578;2023-03-26T05:34:19;97597.59;;;9.04;98.40
35489;BME280;21602;55.670;37.578;2023-03-26T05:36:49;97601.03;;;9.09;99.21
35489;BME280;21602;55.670;37.578;2023-03-26T05:39:28;97598.38;;;9.09;98.73
35489;BME280;21602;55.670;37.578;2023-03-26T05:42:00;97602.09;;;9.08;98.71
35489;BME280;21602;55.670;37.578;2023-03-26T05:44:36;97602.63;;;9.05;98.53
35489;BME280;21602;55.670;37.578;2023-03-26T05:50:17;97600.75;;;9.01;98.84
35489;BME280;21602;55.670;37.578;2023-03-26T05:52:43;97593.56;;;8.96;99.26
35489;BME280;21602;55.670;37.578;2023-03-26T05:55:46;97595.97;;;8.92;99.22
35489;BME280;21602;55.670;37.578;2023-03-26T05:58:34;97585.06;;;8.94;100.00
35489;BME280;21602;55.670;37.578;2023-03-26T06:01:05;97581.06;;;8.91;99.85
35489;BME280;21602;55.670;37.578;2023-03-26T06:03:52;97576.28;;;8.83;99.65
35489;BME280;21602;55.670;37.578;2023-03-26T06:06:20;97573.34;;;8.80;99.84
35489;BME280;21602;55.670;37.578;2023-03-26T06:08:56;97572.28;;;8.76;100.00
35489;BME280;21602;55.670;37.578;2023-03-26T06:11:22;97571.22;;;8.66;100.00
35489;BME280;21602;55.670;37.578;2023-03-26T06:13:48;97562.69;;;8.64;100.00
35489;BME280;21602;55.670;37.578;2023-03-26T06:16:15;97555.25;;;8.66;100.00
35489;BME280;21602;55.670;37.578;2023-03-26T06:18:45;97556.03;;;8.67;100.00
35489;BME280;21602;55.670;37.578;2023-03-26T06:21:49;97552.84;;;8.65;100.00
35489;BME280;21602;55.670;37.578;2023-03-26T06:24:21;97547.78;;;8.63;100.00
35489;BME280;21602;55.670;37.578;2023-03-26T06:27:06;97544.59;;;8.61;100.00
35489;BME280;21602;55.670;37.578;2023-03-26T06:29:50;97547.25;;;8.56;100.00
35489;BME280;21602;55.670;37.578;2023-03-26T06:32:46;97542.97;;;8.40;100.00
35489;BME280;21602;55.670;37.578;2023-03-26T06:35:18;97535.22;;;8.33;100.00
35489;BME280;21602;55.670;37.578;2023-03-26T06:37:45;97539.22;;;8.36;100.00
35489;BME280;21602;55.670;37.578;2023-03-26T06:40:14;97533.41;;;8.44;100.00
35489;BME280;21602;55.670;37.578;2023-03-26T06:42:58;97530.22;;;8.52;100.00
35489;BME280;21602;55.670;37.578;2023-03-26T06:45:51;97524.38;;;8.50;100.00
35489;BME280;21602;55.670;37.578;2023-03-26T06:48:41;97519.06;;;8.50;100.00
35489;BME280;21602;55.670;37.578;2023-03-26T06:51:46;97520.38;;;8.53;100.00
35489;BME280;21602;55.670;37.578;2023-03-26T06:54:31;97523.31;;;8.51;100.00
35489;BME280;21602;55.670;37.578;2023-03-26T06:57:04;97515.88;;;8.58;100.00
35489;BME280;21602;55.670;37.578;2023-03-26T06:59:49;97510.03;;;8.77;100.00
35489;BME280;21602;55.670;37.578;2023-03-26T07:02:34;97508.16;;;8.77;100.00
35489;BME280;21602;55.670;37.578;2023-03-26T07:05:26;97503.09;;;8.76;100.00
35489;BME280;21602;55.670;37.578;2023-03-26T07:08:11;97500.97;;;8.72;100.00
35489;BME280;21602;55.670;37.578;2023-03-26T07:10:56;97496.19;;;8.64;100.00
35489;BME280;21602;55.670;37.578;2023-03-26T07:13:48;97489.25;;;8.63;100.00
35489;BME280;21602;55.670;37.578;2023-03-26T07:16:46;97485.56;;;8.59;100.00
35489;BME280;21602;55.670;37.578;2023-03-26T07:19:12;97484.75;;;8.59;100.00
35489;BME280;21602;55.670;37.578;2023-03-26T07:21:57;97474.09;;;8.59;100.00
35489;BME280;21602;55.670;37.578;2023-03-26T07:24:46;97470.94;;;8.57;100.00
35489;BME280;21602;55.670;37.578;2023-03-26T07:28:36;97466.94;;;8.59;100.00
35489;BME280;21602;55.670;37.578;2023-03-26T07:34:15;97461.88;;;8.53;100.00
35489;BME280;21602;55.670;37.578;2023-03-26T07:49:54;97456.31;;;8.64;100.00
35489;BME280;21602;55.670;37.578;2023-03-26T07:52:58;97450.44;;;8.67;100.00
35489;BME280;21602;55.670;37.578;2023-03-26T07:56:15;97448.84;;;8.61;100.00
35489;BME280;21602;55.670;37.578;2023-03-26T08:04:57;97447.50;;;8.49;100.00
35489;BME280;21602;55.670;37.578;2023-03-26T08:08:17;97449.91;;;8.55;100.00
35489;BME280;21602;55.670;37.578;2023-03-26T08:16:55;97427.28;;;8.68;100.00
35489;BME280;21602;55.670;37.578;2023-03-26T08:19:49;97419.56;;;8.71;100.00
35489;BME280;21602;55.670;37.578;2023-03-26T08:27:58;97430.75;;;8.48;100.00
35489;BME280;21602;55.670;37.578;2023-03-26T08:30:28;97421.19;;;8.57;100.00
35489;BME280;21602;55.670;37.578;2023-03-26T08:35:36;97424.13;;;8.61;100.00
35489;BME280;21602;55.670;37.578;2023-03-26T08:38:10;97411.34;;;8.63;100.00
35489;BME280;21602;55.670;37.578;2023-03-26T08:41:13;97399.38;;;8.70;100.00
35489;BME280;21602;55.670;37.578;2023-03-26T08:55:36;97394.88;;;8.56;100.00
35489;BME280;21602;55.670;37.578;2023-03-26T08:58:12;97393.28;;;8.60;100.00
35489;BME280;21602;55.670;37.578;2023-03-26T09:04:04;97382.34;;;8.61;100.00
35489;BME280;21602;55.670;37.578;2023-03-26T09:06:46;97377.56;;;8.63;100.00
35489;BME280;21602;55.670;37.578;2023-03-26T09:12:23;97386.59;;;8.62;100.00
35489;BME280;21602;55.670;37.578;2023-03-26T09:15:18;97385.00;;;8.71;100.00
35489;BME280;21602;55.670;37.578;2023-03-26T09:23:36;97384.44;;;8.85;100.00
35489;BME280;21602;55.670;37.578;2023-03-26T09:34:29;97360.97;;;9.07;100.00
35489;BME280;21602;55.670;37.578;2023-03-26T09:37:37;97364.66;;;9.16;100.00
35489;BME280;21602;55.670;37.578;2023-03-26T09:40:18;97358.50;;;9.16;100.00
35489;BME280;21602;55.670;37.578;2023-03-26T09:42:45;97352.38;;;9.15;100.00
35489;BME280;21602;55.670;37.578;2023-03-26T09:48:28;97339.63;;;9.12;100.00
35489;BME280;21602;55.670;37.578;2023-03-26T09:54:17;97341.78;;;9.05;100.00
35489;BME280;21602;55.670;37.578;2023-03-26T10:03:40;97339.56;;;9.28;100.00
35489;BME280;21602;55.670;37.578;2023-03-26T10:12:05;97337.94;;;9.37;100.00
35489;BME280;21602;55.670;37.578;2023-03-26T10:14:46;97331.56;;;9.33;100.00
35489;BME280;21602;55.670;37.578;2023-03-26T10:21:35;97331.00;;;9.36;100.00
35489;BME280;21602;55.670;37.578;2023-03-26T10:24:47;97333.41;;;9.37;100.00
35489;BME280;21602;55.670;37.578;2023-03-26T10:29:52;97329.97;;;9.32;100.00
35489;BME280;21602;55.670;37.578;2023-03-26T10:35:44;97322.75;;;9.37;100.00
35489;BME280;21602;55.670;37.578;2023-03-26T10:41:07;97315.00;;;9.41;100.00
35489;BME280;21602;55.670;37.578;2023-03-26T10:46:50;97316.63;;;9.37;100.00
35489;BME280;21602;55.670;37.578;2023-03-26T10:55:56;97309.13;;;9.39;100.00
35489;BME280;21602;55.670;37.578;2023-03-26T11:01:10;97304.81;;;9.48;100.00
35489;BME280;21602;55.670;37.578;2023-03-26T11:06:36;97301.59;;;9.56;100.00
35489;BME280;21602;55.670;37.578;2023-03-26T11:12:30;97301.59;;;9.56;100.00
35489;BME280;21602;55.670;37.578;2023-03-26T11:18:04;97296.25;;;9.56;100.00
35489;BME280;21602;55.670;37.578;2023-03-26T11:20:45;97299.75;;;9.52;100.00
35489;BME280;21602;55.670;37.578;2023-03-26T11:23:35;97293.91;;;9.49;100.00
35489;BME280;21602;55.670;37.578;2023-03-26T11:26:08;97296.59;;;9.44;100.00
35489;BME280;21602;55.670;37.578;2023-03-26T11:34:43;97293.34;;;9.53;100.00
35489;BME280;21602;55.670;37.578;2023-03-26T11:37:17;97297.88;;;9.52;100.00
35489;BME280;21602;55.670;37.578;2023-03-26T11:39:50;97297.06;;;9.57;100.00
35489;BME280;21602;55.670;37.578;2023-03-26T11:42:21;97292.56;;;9.52;100.00
35489;BME280;21602;55.670;37.578;2023-03-26T11:45:11;97297.94;;;9.42;100.00
35489;BME280;21602;55.670;37.578;2023-03-26T11:47:49;97296.91;;;9.38;100.00
35489;BME280;21602;55.670;37.578;2023-03-26T11:50:19;97292.66;;;9.37;100.00
35489;BME280;21602;55.670;37.578;2023-03-26T11:52:49;97295.88;;;9.29;100.00
35489;BME280;21602;55.670;37.578;2023-03-26T11:55:15;97287.88;;;9.34;100.00
35489;BME280;21602;55.670;37.578;2023-03-26T11:57:49;97294.53;;;9.36;100.00
35489;BME280;21602;55.670;37.578;2023-03-26T12:00:17;97287.00;;;9.43;100.00
35489;BME280;21602;55.670;37.578;2023-03-26T12:02:47;97297.38;;;9.50;100.00
35489;BME280;21602;55.670;37.578;2023-03-26T12:07:48;97286.72;;;9.50;100.00
35489;BME280;21602;55.670;37.578;2023-03-26T12:10:22;97286.97;;;9.48;100.00
35489;BME280;21602;55.670;37.578;2023-03-26T12:12:54;97280.06;;;9.47;100.00
35489;BME280;21602;55.670;37.578;2023-03-26T12:15:21;97285.13;;;9.44;100.00
35489;BME280;21602;55.670;37.578;2023-03-26T12:17:50;97284.59;;;9.47;100.00
35489;BME280;21602;55.670;37.578;2023-03-26T12:20:31;97277.66;;;9.51;100.00
35489;BME280;21602;55.670;37.578;2023-03-26T12:23:00;97273.41;;;9.50;100.00
35489;BME280;21602;55.670;37.578;2023-03-26T12:25:36;97271.75;;;9.54;100.00
35489;BME280;21602;55.670;37.578;2023-03-26T12:30:41;97266.91;;;9.61;99.82
35489;BME280;21602;55.670;37.578;2023-03-26T12:33:24;97267.00;;;9.51;99.58
35489;BME280;21602;55.670;37.578;2023-03-26T12:35:53;97269.16;;;9.44;100.00
35489;BME280;21602;55.670;37.578;2023-03-26T12:41:35;97259.16;;;9.31;100.00
35489;BME280;21602;55.670;37.578;2023-03-26T12:44:34;97262.31;;;9.33;100.00
35489;BME280;21602;55.670;37.578;2023-03-26T12:49:33;97257.00;;;9.33;100.00
35489;BME280;21602;55.670;37.578;2023-03-26T12:55:02;97252.63;;;9.47;100.00
35489;BME280;21602;55.670;37.578;2023-03-26T12:57:52;97263.00;;;9.48;100.00
35489;BME280;21602;55.670;37.578;2023-03-26T13:00:57;97255.25;;;9.52;100.00
35489;BME280;21602;55.670;37.578;2023-03-26T13:06:38;97252.34;;;9.48;99.87
35489;BME280;21602;55.670;37.578;2023-03-26T13:09:18;97254.78;;;9.45;100.00
35489;BME280;21602;55.670;37.578;2023-03-26T13:14:50;97258.84;;;9.37;100.00
35489;BME280;21602;55.670;37.578;2023-03-26T13:25:25;97252.13;;;9.40;100.00
35489;BME280;21602;55.670;37.578;2023-03-26T13:33:41;97251.19;;;9.20;99.74
35489;BME280;21602;55.670;37.578;2023-03-26T13:36:35;97253.91;;;9.15;100.00
35489;BME280;21602;55.670;37.578;2023-03-26T13:39:16;97250.19;;;9.16;100.00
35489;BME280;21602;55.670;37.578;2023-03-26T13:42:06;97242.41;;;9.20;99.87
35489;BME280;21602;55.670;37.578;2023-03-26T13:47:19;97244.06;;;9.11;100.00
35489;BME280;21602;55.670;37.578;2023-03-26T13:52:44;97238.56;;;9.02;100.00
35489;BME280;21602;55.670;37.578;2023-03-26T13:55:18;97231.09;;;8.99;100.00
35489;BME280;21602;55.670;37.578;2023-03-26T13:58:12;97236.44;;;8.99;100.00
35489;BME280;21602;55.670;37.578;2023-03-26T14:01:14;97242.03;;;8.97;100.00
35489;BME280;21602;55.670;37.578;2023-03-26T14:09:42;97243.38;;;8.95;100.00
35489;BME280;21602;55.670;37.578;2023-03-26T14:15:10;97249.75;;;8.94;100.00
35489;BME280;21602;55.670;37.578;2023-03-26T14:17:53;97238.56;;;8.97;100.00
35489;BME280;21602;55.670;37.578;2023-03-26T14:20:30;97251.31;;;9.00;100.00
35489;BME280;21602;55.670;37.578;2023-03-26T14:31:35;97249.59;;;8.70;100.00
35489;BME280;21602;55.670;37.578;2023-03-26T14:34:09;97239.25;;;8.63;100.00
35489;BME280;21602;55.670;37.578;2023-03-26T14:44:37;97244.56;;;8.63;100.00
35489;BME280;21602;55.670;37.578;2023-03-26T14:47:20;97247.75;;;8.65;100.00
35489;BME280;21602;55.670;37.578;2023-03-26T14:55:13;97255.19;;;8.63;100.00
35489;BME280;21602;55.670;37.578;2023-03-26T15:37:24;97234.94;;;8.78;100.00
35489;BME280;21602;55.670;37.578;2023-03-26T16:04:28;97247.25;;;8.58;100.00
35489;BME280;21602;55.670;37.578;2023-03-26T16:09:57;97248.84;;;8.59;100.00
35489;BME280;21602;55.670;37.578;2023-03-26T16:12:36;97246.72;;;8.56;100.00
35489;BME280;21602;55.670;37.578;2023-03-26T16:15:26;97248.09;;;8.43;100.00
35489;BME280;21602;55.670;37.578;2023-03-26T16:28:35;97246.22;;;8.49;100.00
35489;BME280;21602;55.670;37.578;2023-03-26T16:33:41;97248.59;;;8.56;100.00
35489;BME280;21602;55.670;37.578;2023-03-26T16:36:38;97241.94;;;8.53;100.00
35489;BME280;21602;55.670;37.578;2023-03-26T16:44:23;97249.66;;;8.50;100.00
35489;BME280;21602;55.670;37.578;2023-03-26T16:47:02;97249.66;;;8.50;100.00
35489;BME280;21602;55.670;37.578;2023-03-26T16:52:49;97248.59;;;8.56;100.00
35489;BME280;21602;55.670;37.578;2023-03-26T16:55:46;97252.03;;;8.61;100.00
35489;BME280;21602;55.670;37.578;2023-03-26T17:01:45;97251.53;;;8.59;100.00
35489;BME280;21602;55.670;37.578;2023-03-26T17:04:19;97255.00;;;8.55;100.00
35489;BME280;21602;55.670;37.578;2023-03-26T17:10:02;97250.22;;;8.46;100.00
35489;BME280;21602;55.670;37.578;2023-03-26T17:15:27;97256.34;;;8.47;100.00
35489;BME280;21602;55.670;37.578;2023-03-26T17:20:38;97257.91;;;8.48;100.00
35489;BME280;21602;55.670;37.578;2023-03-26T17:26:45;97264.31;;;8.47;100.00
35489;BME280;21602;55.670;37.578;2023-03-26T17:32:08;97255.81;;;8.50;100.00
35489;BME280;21602;55.670;37.578;2023-03-26T17:34:41;97255.53;;;8.46;100.00
35489;BME280;21602;55.670;37.578;2023-03-26T17:42:28;97256.34;;;8.47;100.00
35489;BME280;21602;55.670;37.578;2023-03-26T17:44:58;97247.28;;;8.48;100.00
35489;BME280;21602;55.670;37.578;2023-03-26T17:50:21;97246.22;;;8.44;100.00
35489;BME280;21602;55.670;37.578;2023-03-26T17:53:12;97241.47;;;8.41;100.00
35489;BME280;21602;55.670;37.578;2023-03-26T17:55:42;97243.06;;;8.37;100.00
35489;BME280;21602;55.670;37.578;2023-03-26T17:58:27;97248.13;;;8.38;100.00
35489;BME280;21602;55.670;37.578;2023-03-26T18:01:22;97245.72;;;8.27;100.00
35489;BME280;21602;55.670;37.578;2023-03-26T18:04:05;97249.19;;;8.22;100.00
35489;BME280;21602;55.670;37.578;2023-03-26T18:18:17;97241.81;;;7.93;100.00
35489;BME280;21602;55.670;37.578;2023-03-26T18:20:45;97238.88;;;7.95;100.00
35489;BME280;21602;55.670;37.578;2023-03-26T18:23:34;97247.34;;;7.97;100.00
35489;BME280;21602;55.670;37.578;2023-03-26T18:26:15;97244.97;;;7.95;100.00
35489;BME280;21602;55.670;37.578;2023-03-26T18:29:10;97237.78;;;8.01;100.00
35489;BME280;21602;55.670;37.578;2023-03-26T18:31:56;97237.25;;;8.04;100.00
35489;BME280;21602;55.670;37.578;2023-03-26T18:34:49;97237.78;;;8.06;100.00
35489;BME280;21602;55.670;37.578;2023-03-26T18:37:31;97239.38;;;8.02;100.00
35489;BME280;21602;55.670;37.578;2023-03-26T18:40:17;97238.59;;;8.02;100.00
35489;BME280;21602;55.670;37.578;2023-03-26T18:45:35;97235.91;;;8.07;100.00
35489;BME280;21602;55.670;37.578;2023-03-26T18:48:27;97233.00;;;8.08;100.00
35489;BME280;21602;55.670;37.578;2023-03-26T18:51:01;97230.84;;;8.15;100.00
35489;BME280;21602;55.670;37.578;2023-03-26T18:53:41;97233.50;;;8.20;100.00
35489;BME280;21602;55.670;37.578;2023-03-26T18:56:30;97227.13;;;8.21;100.00
35489;BME280;21602;55.670;37.578;2023-03-26T18:59:00;97238.31;;;8.18;100.00
35489;BME280;21602;55.670;37.578;2023-03-26T19:01:34;97238.31;;;8.18;100.00
35489;BME280;21602;55.670;37.578;2023-03-26T19:04:06;97237.50;;;8.18;100.00
35489;BME280;21602;55.670;37.578;2023-03-26T19:06:38;97247.34;;;8.17;100.00
35489;BME280;21602;55.670;37.578;2023-03-26T19:09:14;97238.81;;;8.15;100.00
35489;BME280;21602;55.670;37.578;2023-03-26T19:11:50;97245.72;;;8.16;100.00
35489;BME280;21602;55.670;37.578;2023-03-26T19:14:20;97241.47;;;8.20;100.00
35489;BME280;21602;55.670;37.578;2023-03-26T19:16:56;97234.84;;;8.23;100.00
35489;BME280;21602;55.670;37.578;2023-03-26T19:19:28;97235.09;;;8.27;100.00
35489;BME280;21602;55.670;37.578;2023-03-26T19:21:56;97232.94;;;8.29;100.00
35489;BME280;21602;55.670;37.578;2023-03-26T19:24:23;97228.44;;;8.24;100.00
35489;BME280;21602;55.670;37.578;2023-03-26T19:26:50;97227.94;;;8.22;100.00
35489;BME280;21602;55.670;37.578;2023-03-26T19:29:22;97230.59;;;8.17;100.00
35489;BME280;21602;55.670;37.578;2023-03-26T19:31:50;97225.31;;;8.12;100.00
35489;BME280;21602;55.670;37.578;2023-03-26T19:34:33;97224.25;;;7.98;100.00
35489;BME280;21602;55.670;37.578;2023-03-26T19:37:02;97220.00;;;7.91;100.00
35489;BME280;21602;55.670;37.578;2023-03-26T19:42:05;97223.22;;;7.88;100.00
35489;BME280;21602;55.670;37.578;2023-03-26T19:44:32;97220.00;;;7.86;100.00
35489;BME280;21602;55.670;37.578;2023-03-26T19:47:04;97219.50;;;7.84;100.00
35489;BME280;21602;55.670;37.578;2023-03-26T19:49:39;97221.34;;;7.84;100.00
35489;BME280;21602;55.670;37.578;2023-03-26T19:55:08;97224.03;;;7.79;100.00
35489;BME280;21602;55.670;37.578;2023-03-26T19:57:42;97222.16;;;7.74;100.00
35489;BME280;21602;55.670;37.578;2023-03-26T20:00:10;97225.06;;;7.73;100.00
35489;BME280;21602;55.670;37.578;2023-03-26T20:02:42;97233.03;;;7.73;100.00
35489;BME280;21602;55.670;37.578;2023-03-26T20:05:32;97224.53;;;7.76;100.00
35489;BME280;21602;55.670;37.578;2023-03-26T20:07:59;97238.91;;;7.75;100.00